sensor_id;sensor_type;location;lat;lon;timestamp;temperature;humidity
24645;DHT22;12780;45.502;9.146;2023-04-15T00:00:15;13.80;95.70
24645;DHT22;12780;45.502;9.146;2023-04-15T00:02:42;13.60;95.60
24645;DHT22;12780;45.502;9.146;2023-04-15T00:05:08;13.60;95.50
24645;DHT22;12780;45.502;9.146;2023-04-15T00:07:34;13.60;95.10
24645;DHT22;12780;45.502;9.146;2023-04-15T00:10:00;13.60;95.30
24645;DHT22;12780;45.502;9.146;2023-04-15T00:12:26;13.60;95.60
24645;DHT22;12780;45.502;9.146;2023-04-15T00:14:52;13.60;96.10
24645;DHT22;12780;45.502;9.146;2023-04-15T00:17:19;13.60;96.10
24645;DHT22;12780;45.502;9.146;2023-04-15T00:19:44;13.70;95.80
24645;DHT22;12780;45.502;9.146;2023-04-15T00:22:11;13.50;95.50
24645;DHT22;12780;45.502;9.146;2023-04-15T00:24:37;13.50;95.50
24645;DHT22;12780;45.502;9.146;2023-04-15T00:27:02;13.50;96.10
24645;DHT22;12780;45.502;9.146;2023-04-15T00:29:28;13.50;97.30
24645;DHT22;12780;45.502;9.146;2023-04-15T00:31:54;13.40;97.20
24645;DHT22;12780;45.502;9.146;2023-04-15T00:34:21;13.40;96.60
24645;DHT22;12780;45.502;9.146;2023-04-15T00:36:47;13.30;96.70
24645;DHT22;12780;45.502;9.146;2023-04-15T00:39:13;13.20;96.00
24645;DHT22;12780;45.502;9.146;2023-04-15T00:41:38;13.20;96.50
24645;DHT22;12780;45.502;9.146;2023-04-15T00:44:07;13.20;96.90
24645;DHT22;12780;45.502;9.146;2023-04-15T00:46:37;13.20;97.00
24645;DHT22;12780;45.502;9.146;2023-04-15T00:49:05;13.10;96.70
24645;DHT22;12780;45.502;9.146;2023-04-15T00:51:31;13.00;96.60
24645;DHT22;12780;45.502;9.146;2023-04-15T00:53:58;13.00;97.40
24645;DHT22;12780;45.502;9.146;2023-04-15T00:56:24;13.00;97.50
24645;DHT22;12780;45.502;9.146;2023-04-15T00:58:51;13.00;97.70
24645;DHT22;12780;45.502;9.146;2023-04-15T01:01:21;13.00;97.90
24645;DHT22;12780;45.502;9.146;2023-04-15T01:03:48;12.90;97.50
24645;DHT22;12780;45.502;9.146;2023-04-15T01:06:15;12.90;98.00
24645;DHT22;12780;45.502;9.146;2023-04-15T01:08:41;12.80;98.40
24645;DHT22;12780;45.502;9.146;2023-04-15T01:11:07;12.90;98.70
24645;DHT22;12780;45.502;9.146;2023-04-15T01:13:34;12.90;99.40
24645;DHT22;12780;45.502;9.146;2023-04-15T01:16:01;12.80;99.70
24645;DHT22;12780;45.502;9.146;2023-04-15T01:18:27;12.70;99.40
24645;DHT22;12780;45.502;9.146;2023-04-15T01:20:53;12.70;99.40
24645;DHT22;12780;45.502;9.146;2023-04-15T01:23:20;12.70;99.40
24645;DHT22;12780;45.502;9.146;2023-04-15T01:25:48;12.70;99.60
24645;DHT22;12780;45.502;9.146;2023-04-15T01:28:14;12.70;99.80
24645;DHT22;12780;45.502;9.146;2023-04-15T01:30:40;12.70;99.90
24645;DHT22;12780;45.502;9.146;2023-04-15T01:33:06;12.70;99.90
24645;DHT22;12780;45.502;9.146;2023-04-15T01:35:31;12.70;99.90
24645;DHT22;12780;45.502;9.146;2023-04-15T01:38:04;12.70;99.90
24645;DHT22;12780;45.502;9.146;2023-04-15T01:40:30;12.70;99.90
24645;DHT22;12780;45.502;9.146;2023-04-15T01:42:56;12.60;99.90
24645;DHT22;12780;45.502;9.146;2023-04-15T01:45:21;12.60;99.90
24645;DHT22;12780;45.502;9.146;2023-04-15T01:47:47;12.60;99.90
24645;DHT22;12780;45.502;9.146;2023-04-15T01:50:13;12.60;99.90
24645;DHT22;12780;45.502;9.146;2023-04-15T01:52:39;12.60;99.90
24645;DHT22;12780;45.502;9.146;2023-04-15T01:55:05;12.60;99.90
24645;DHT22;12780;45.502;9.146;2023-04-15T01:57:32;12.60;99.90
24645;DHT22;12780;45.502;9.146;2023-04-15T01:59:58;12.60;99.90
24645;DHT22;12780;45.502;9.146;2023-04-15T02:02:23;12.50;99.90
24645;DHT22;12780;45.502;9.146;2023-04-15T02:04:49;12.60;99.90
24645;DHT22;12780;45.502;9.146;2023-04-15T02:07:14;12.60;99.90
24645;DHT22;12780;45.502;9.146;2023-04-15T02:09:40;12.60;99.90
24645;DHT22;12780;45.502;9.146;2023-04-15T02:12:06;12.60;99.90
24645;DHT22;12780;45.502;9.146;2023-04-15T02:14:32;12.60;99.90
24645;DHT22;12780;45.502;9.146;2023-04-15T02:16:57;12.60;99.90
24645;DHT22;12780;45.502;9.146;2023-04-15T02:19:30;12.60;99.90
24645;DHT22;12780;45.502;9.146;2023-04-15T02:21:56;12.60;99.90
24645;DHT22;12780;45.502;9.146;2023-04-15T02:24:21;12.70;99.90
24645;DHT22;12780;45.502;9.146;2023-04-15T02:26:47;12.60;99.90
24645;DHT22;12780;45.502;9.146;2023-04-15T02:29:13;12.60;99.90
24645;DHT22;12780;45.502;9.146;2023-04-15T02:31:38;12.60;99.90
24645;DHT22;12780;45.502;9.146;2023-04-15T02:34:06;12.60;99.90
24645;DHT22;12780;45.502;9.146;2023-04-15T02:36:32;12.60;99.90
24645;DHT22;12780;45.502;9.146;2023-04-15T02:38:59;12.50;99.90
24645;DHT22;12780;45.502;9.146;2023-04-15T02:41:24;12.60;99.90
24645;DHT22;12780;45.502;9.146;2023-04-15T02:43:52;12.60;99.90
24645;DHT22;12780;45.502;9.146;2023-04-15T02:46:18;12.60;99.90
24645;DHT22;12780;45.502;9.146;2023-04-15T02:48:43;12.50;99.90
24645;DHT22;12780;45.502;9.146;2023-04-15T02:51:17;12.50;99.90
24645;DHT22;12780;45.502;9.146;2023-04-15T02:53:44;12.50;99.90
24645;DHT22;12780;45.502;9.146;2023-04-15T02:56:10;12.50;99.90
24645;DHT22;12780;45.502;9.146;2023-04-15T02:58:36;12.50;99.90
24645;DHT22;12780;45.502;9.146;2023-04-15T03:01:01;12.50;99.90
24645;DHT22;12780;45.502;9.146;2023-04-15T03:03:27;12.50;99.90
24645;DHT22;12780;45.502;9.146;2023-04-15T03:05:53;12.50;99.90
24645;DHT22;12780;45.502;9.146;2023-04-15T03:08:18;12.50;99.90
24645;DHT22;12780;45.502;9.146;2023-04-15T03:10:45;12.50;99.90
24645;DHT22;12780;45.502;9.146;2023-04-15T03:13:11;12.60;99.90
24645;DHT22;12780;45.502;9.146;2023-04-15T03:15:37;12.50;99.90
24645;DHT22;12780;45.502;9.146;2023-04-15T03:18:03;12.50;99.90
24645;DHT22;12780;45.502;9.146;2023-04-15T03:20:28;12.60;99.90
24645;DHT22;12780;45.502;9.146;2023-04-15T03:22:54;12.60;99.90
24645;DHT22;12780;45.502;9.146;2023-04-15T03:25:19;12.70;99.90
24645;DHT22;12780;45.502;9.146;2023-04-15T03:27:45;12.50;99.90
24645;DHT22;12780;45.502;9.146;2023-04-15T03:30:11;12.50;99.90
24645;DHT22;12780;45.502;9.146;2023-04-15T03:32:36;12.50;99.90
24645;DHT22;12780;45.502;9.146;2023-04-15T03:35:02;12.50;99.90
24645;DHT22;12780;45.502;9.146;2023-04-15T03:37:28;12.50;99.90
24645;DHT22;12780;45.502;9.146;2023-04-15T03:39:53;12.60;99.90
24645;DHT22;12780;45.502;9.146;2023-04-15T03:42:19;12.50;99.90
24645;DHT22;12780;45.502;9.146;2023-04-15T03:44:44;12.50;99.90
24645;DHT22;12780;45.502;9.146;2023-04-15T03:47:10;12.50;99.90
24645;DHT22;12780;45.502;9.146;2023-04-15T03:49:36;12.50;99.90
24645;DHT22;12780;45.502;9.146;2023-04-15T03:52:02;12.50;99.90
24645;DHT22;12780;45.502;9.146;2023-04-15T03:54:27;12.60;99.90
24645;DHT22;12780;45.502;9.146;2023-04-15T03:56:53;12.50;99.90
24645;DHT22;12780;45.502;9.146;2023-04-15T03:59:18;12.50;99.90
24645;DHT22;12780;45.502;9.146;2023-04-15T04:01:44;12.60;99.90
24645;DHT22;12780;45.502;9.146;2023-04-15T04:04:10;12.40;99.90
24645;DHT22;12780;45.502;9.146;2023-04-15T04:06:35;12.40;99.90
24645;DHT22;12780;45.502;9.146;2023-04-15T04:09:01;12.40;99.90
24645;DHT22;12780;45.502;9.146;2023-04-15T04:11:26;12.40;99.90
24645;DHT22;12780;45.502;9.146;2023-04-15T04:13:52;12.30;99.90
24645;DHT22;12780;45.502;9.146;2023-04-15T04:16:18;12.30;99.90
24645;DHT22;12780;45.502;9.146;2023-04-15T04:18:44;12.20;99.90
24645;DHT22;12780;45.502;9.146;2023-04-15T04:21:10;12.20;99.90
24645;DHT22;12780;45.502;9.146;2023-04-15T04:23:35;12.30;99.90
24645;DHT22;12780;45.502;9.146;2023-04-15T04:26:01;12.30;99.90
24645;DHT22;12780;45.502;9.146;2023-04-15T04:28:27;12.20;99.90
24645;DHT22;12780;45.502;9.146;2023-04-15T04:30:52;12.30;99.90
24645;DHT22;12780;45.502;9.146;2023-04-15T04:33:18;12.30;99.90
24645;DHT22;12780;45.502;9.146;2023-04-15T04:35:43;12.30;99.90
24645;DHT22;12780;45.502;9.146;2023-04-15T04:38:09;12.30;99.90
24645;DHT22;12780;45.502;9.146;2023-04-15T04:40:35;12.30;99.90
24645;DHT22;12780;45.502;9.146;2023-04-15T04:43:01;12.20;99.90
24645;DHT22;12780;45.502;9.146;2023-04-15T04:45:26;12.10;99.90
24645;DHT22;12780;45.502;9.146;2023-04-15T04:47:52;12.10;99.90
24645;DHT22;12780;45.502;9.146;2023-04-15T04:50:18;12.10;99.90
24645;DHT22;12780;45.502;9.146;2023-04-15T04:52:43;12.00;99.90
24645;DHT22;12780;45.502;9.146;2023-04-15T04:55:09;12.00;99.90
24645;DHT22;12780;45.502;9.146;2023-04-15T04:57:34;12.00;99.90
24645;DHT22;12780;45.502;9.146;2023-04-15T05:00:01;12.00;99.90
24645;DHT22;12780;45.502;9.146;2023-04-15T05:02:29;12.10;99.90
24645;DHT22;12780;45.502;9.146;2023-04-15T05:04:55;11.90;99.90
24645;DHT22;12780;45.502;9.146;2023-04-15T05:07:21;12.00;99.90
24645;DHT22;12780;45.502;9.146;2023-04-15T05:09:46;12.10;99.90
24645;DHT22;12780;45.502;9.146;2023-04-15T05:12:12;12.10;99.90
24645;DHT22;12780;45.502;9.146;2023-04-15T05:14:40;12.10;99.90
24645;DHT22;12780;45.502;9.146;2023-04-15T05:17:06;12.10;99.90
24645;DHT22;12780;45.502;9.146;2023-04-15T05:19:31;12.10;99.90
24645;DHT22;12780;45.502;9.146;2023-04-15T05:21:57;12.20;99.90
24645;DHT22;12780;45.502;9.146;2023-04-15T05:24:23;12.30;99.90
24645;DHT22;12780;45.502;9.146;2023-04-15T05:26:48;12.30;99.90
24645;DHT22;12780;45.502;9.146;2023-04-15T05:29:14;12.40;99.90
24645;DHT22;12780;45.502;9.146;2023-04-15T05:31:40;12.50;99.90
24645;DHT22;12780;45.502;9.146;2023-04-15T05:34:05;12.60;99.90
24645;DHT22;12780;45.502;9.146;2023-04-15T05:36:31;12.60;99.90
24645;DHT22;12780;45.502;9.146;2023-04-15T05:38:57;12.70;99.90
24645;DHT22;12780;45.502;9.146;2023-04-15T05:41:23;12.80;99.90
24645;DHT22;12780;45.502;9.146;2023-04-15T05:43:48;12.80;99.90
24645;DHT22;12780;45.502;9.146;2023-04-15T05:46:14;12.90;99.90
24645;DHT22;12780;45.502;9.146;2023-04-15T05:48:39;12.90;99.90
24645;DHT22;12780;45.502;9.146;2023-04-15T05:51:05;13.00;99.90
24645;DHT22;12780;45.502;9.146;2023-04-15T05:53:30;13.00;99.90
24645;DHT22;12780;45.502;9.146;2023-04-15T05:55:56;13.00;99.90
24645;DHT22;12780;45.502;9.146;2023-04-15T05:58:22;13.10;99.90
24645;DHT22;12780;45.502;9.146;2023-04-15T06:00:47;13.20;99.90
24645;DHT22;12780;45.502;9.146;2023-04-15T06:03:13;13.30;99.90
24645;DHT22;12780;45.502;9.146;2023-04-15T06:05:39;13.40;99.90
24645;DHT22;12780;45.502;9.146;2023-04-15T06:08:05;13.30;99.90
24645;DHT22;12780;45.502;9.146;2023-04-15T06:10:30;13.50;99.90
24645;DHT22;12780;45.502;9.146;2023-04-15T06:13:01;13.70;99.90
24645;DHT22;12780;45.502;9.146;2023-04-15T06:15:27;13.60;99.90
24645;DHT22;12780;45.502;9.146;2023-04-15T06:17:52;13.60;99.90
24645;DHT22;12780;45.502;9.146;2023-04-15T06:20:18;13.60;99.90
24645;DHT22;12780;45.502;9.146;2023-04-15T06:22:44;13.50;99.90
24645;DHT22;12780;45.502;9.146;2023-04-15T06:25:10;13.30;99.90
24645;DHT22;12780;45.502;9.146;2023-04-15T06:27:35;13.50;99.90
24645;DHT22;12780;45.502;9.146;2023-04-15T06:30:01;13.40;99.90
24645;DHT22;12780;45.502;9.146;2023-04-15T06:32:27;13.50;99.90
24645;DHT22;12780;45.502;9.146;2023-04-15T06:34:53;13.40;99.90
24645;DHT22;12780;45.502;9.146;2023-04-15T06:37:18;13.40;99.90
24645;DHT22;12780;45.502;9.146;2023-04-15T06:39:44;13.40;99.90
24645;DHT22;12780;45.502;9.146;2023-04-15T06:42:10;13.40;99.90
24645;DHT22;12780;45.502;9.146;2023-04-15T06:44:36;13.40;99.90
24645;DHT22;12780;45.502;9.146;2023-04-15T06:47:02;13.30;99.90
24645;DHT22;12780;45.502;9.146;2023-04-15T06:49:27;13.30;99.90
24645;DHT22;12780;45.502;9.146;2023-04-15T06:51:53;13.40;99.90
24645;DHT22;12780;45.502;9.146;2023-04-15T06:54:18;13.40;99.90
24645;DHT22;12780;45.502;9.146;2023-04-15T06:56:44;13.40;99.90
24645;DHT22;12780;45.502;9.146;2023-04-15T06:59:10;13.30;99.90
24645;DHT22;12780;45.502;9.146;2023-04-15T07:01:35;13.60;99.90
24645;DHT22;12780;45.502;9.146;2023-04-15T07:04:01;13.50;99.90
24645;DHT22;12780;45.502;9.146;2023-04-15T07:06:26;13.50;99.90
24645;DHT22;12780;45.502;9.146;2023-04-15T07:08:52;13.50;99.90
24645;DHT22;12780;45.502;9.146;2023-04-15T07:11:19;13.50;99.90
24645;DHT22;12780;45.502;9.146;2023-04-15T07:13:45;13.60;99.90
24645;DHT22;12780;45.502;9.146;2023-04-15T07:16:10;13.60;99.90
24645;DHT22;12780;45.502;9.146;2023-04-15T07:18:36;13.60;99.90
24645;DHT22;12780;45.502;9.146;2023-04-15T07:21:02;13.60;99.90
24645;DHT22;12780;45.502;9.146;2023-04-15T07:23:27;13.60;99.90
24645;DHT22;12780;45.502;9.146;2023-04-15T07:25:53;13.60;99.90
24645;DHT22;12780;45.502;9.146;2023-04-15T07:28:19;13.60;99.90
24645;DHT22;12780;45.502;9.146;2023-04-15T07:30:45;13.60;99.90
24645;DHT22;12780;45.502;9.146;2023-04-15T07:33:10;13.70;99.90
24645;DHT22;12780;45.502;9.146;2023-04-15T07:35:36;13.80;99.90
24645;DHT22;12780;45.502;9.146;2023-04-15T07:38:02;13.80;99.90
24645;DHT22;12780;45.502;9.146;2023-04-15T07:40:27;13.90;99.90
24645;DHT22;12780;45.502;9.146;2023-04-15T07:42:54;14.10;99.90
24645;DHT22;12780;45.502;9.146;2023-04-15T07:45:21;14.10;99.90
24645;DHT22;12780;45.502;9.146;2023-04-15T07:47:47;14.00;99.90
24645;DHT22;12780;45.502;9.146;2023-04-15T07:50:13;14.10;99.90
24645;DHT22;12780;45.502;9.146;2023-04-15T07:52:39;14.20;99.90
24645;DHT22;12780;45.502;9.146;2023-04-15T07:55:06;14.30;99.90
24645;DHT22;12780;45.502;9.146;2023-04-15T07:57:36;14.30;99.90
24645;DHT22;12780;45.502;9.146;2023-04-15T08:00:02;14.30;99.90
24645;DHT22;12780;45.502;9.146;2023-04-15T08:02:30;14.30;99.90
24645;DHT22;12780;45.502;9.146;2023-04-15T08:04:56;14.50;99.90
24645;DHT22;12780;45.502;9.146;2023-04-15T08:07:22;14.60;99.90
24645;DHT22;12780;45.502;9.146;2023-04-15T08:09:47;14.60;99.90
24645;DHT22;12780;45.502;9.146;2023-04-15T08:12:13;14.70;99.90
24645;DHT22;12780;45.502;9.146;2023-04-15T08:14:39;14.70;99.90
24645;DHT22;12780;45.502;9.146;2023-04-15T08:17:05;14.80;99.90
24645;DHT22;12780;45.502;9.146;2023-04-15T08:19:30;14.90;99.90
24645;DHT22;12780;45.502;9.146;2023-04-15T08:21:56;15.00;99.90
24645;DHT22;12780;45.502;9.146;2023-04-15T08:24:23;15.20;99.90
24645;DHT22;12780;45.502;9.146;2023-04-15T08:26:51;15.00;99.90
24645;DHT22;12780;45.502;9.146;2023-04-15T08:29:16;14.90;99.90
24645;DHT22;12780;45.502;9.146;2023-04-15T08:31:42;14.90;99.90
24645;DHT22;12780;45.502;9.146;2023-04-15T08:34:08;15.00;99.90
24645;DHT22;12780;45.502;9.146;2023-04-15T08:36:33;14.90;99.90
24645;DHT22;12780;45.502;9.146;2023-04-15T08:38:59;14.80;99.90
24645;DHT22;12780;45.502;9.146;2023-04-15T08:41:26;14.90;99.90
24645;DHT22;12780;45.502;9.146;2023-04-15T08:44:02;14.90;99.90
24645;DHT22;12780;45.502;9.146;2023-04-15T08:46:30;15.00;99.90
24645;DHT22;12780;45.502;9.146;2023-04-15T08:48:57;15.10;99.90
24645;DHT22;12780;45.502;9.146;2023-04-15T08:51:23;15.30;99.90
24645;DHT22;12780;45.502;9.146;2023-04-15T08:53:49;15.30;99.90
24645;DHT22;12780;45.502;9.146;2023-04-15T08:56:15;15.30;99.90
24645;DHT22;12780;45.502;9.146;2023-04-15T08:58:43;15.40;99.90
24645;DHT22;12780;45.502;9.146;2023-04-15T09:01:11;15.50;99.90
24645;DHT22;12780;45.502;9.146;2023-04-15T09:03:38;15.50;99.90
24645;DHT22;12780;45.502;9.146;2023-04-15T09:06:06;15.50;99.90
24645;DHT22;12780;45.502;9.146;2023-04-15T09:08:32;15.50;99.90
24645;DHT22;12780;45.502;9.146;2023-04-15T09:10:59;15.30;99.90
24645;DHT22;12780;45.502;9.146;2023-04-15T09:13:24;15.30;99.90
24645;DHT22;12780;45.502;9.146;2023-04-15T09:15:50;15.40;99.90
24645;DHT22;12780;45.502;9.146;2023-04-15T09:18:32;15.40;99.90
24645;DHT22;12780;45.502;9.146;2023-04-15T09:23:31;15.50;99.90
24645;DHT22;12780;45.502;9.146;2023-04-15T09:25:57;15.60;99.90
24645;DHT22;12780;45.502;9.146;2023-04-15T09:28:24;15.70;99.90
24645;DHT22;12780;45.502;9.146;2023-04-15T09:30:54;15.80;99.90
24645;DHT22;12780;45.502;9.146;2023-04-15T09:33:20;15.80;99.90
24645;DHT22;12780;45.502;9.146;2023-04-15T09:36:03;15.80;99.90
24645;DHT22;12780;45.502;9.146;2023-04-15T09:38:29;15.90;99.90
24645;DHT22;12780;45.502;9.146;2023-04-15T09:40:55;15.80;99.90
24645;DHT22;12780;45.502;9.146;2023-04-15T09:43:21;15.80;99.90
24645;DHT22;12780;45.502;9.146;2023-04-15T09:45:50;16.00;99.90
24645;DHT22;12780;45.502;9.146;2023-04-15T09:48:25;16.00;99.90
24645;DHT22;12780;45.502;9.146;2023-04-15T09:50:52;16.10;99.90
24645;DHT22;12780;45.502;9.146;2023-04-15T09:53:23;16.10;99.90
24645;DHT22;12780;45.502;9.146;2023-04-15T09:55:50;16.20;99.90
24645;DHT22;12780;45.502;9.146;2023-04-15T09:58:24;16.30;99.90
24645;DHT22;12780;45.502;9.146;2023-04-15T10:00:52;16.30;99.90
24645;DHT22;12780;45.502;9.146;2023-04-15T10:03:23;16.40;99.90
24645;DHT22;12780;45.502;9.146;2023-04-15T10:05:51;16.40;99.90
24645;DHT22;12780;45.502;9.146;2023-04-15T10:08:19;16.50;99.90
24645;DHT22;12780;45.502;9.146;2023-04-15T10:10:46;16.50;99.90
24645;DHT22;12780;45.502;9.146;2023-04-15T10:13:17;16.60;99.90
24645;DHT22;12780;45.502;9.146;2023-04-15T10:15:44;16.60;99.90
24645;DHT22;12780;45.502;9.146;2023-04-15T10:18:15;16.50;99.90
24645;DHT22;12780;45.502;9.146;2023-04-15T10:20:42;16.40;99.90
24645;DHT22;12780;45.502;9.146;2023-04-15T10:23:08;16.40;99.90
24645;DHT22;12780;45.502;9.146;2023-04-15T10:25:34;16.50;99.90
24645;DHT22;12780;45.502;9.146;2023-04-15T10:28:01;16.60;99.90
24645;DHT22;12780;45.502;9.146;2023-04-15T10:30:27;16.60;99.90
24645;DHT22;12780;45.502;9.146;2023-04-15T10:32:54;16.80;99.90
24645;DHT22;12780;45.502;9.146;2023-04-15T10:35:21;16.90;99.90
24645;DHT22;12780;45.502;9.146;2023-04-15T10:37:47;17.00;99.90
24645;DHT22;12780;45.502;9.146;2023-04-15T10:40:28;17.20;99.90
24645;DHT22;12780;45.502;9.146;2023-04-15T10:43:00;17.40;99.90
24645;DHT22;12780;45.502;9.146;2023-04-15T10:45:28;17.40;99.90
24645;DHT22;12780;45.502;9.146;2023-04-15T10:48:02;17.50;99.90
24645;DHT22;12780;45.502;9.146;2023-04-15T10:50:30;17.40;99.90
24645;DHT22;12780;45.502;9.146;2023-04-15T10:52:57;17.40;99.90
24645;DHT22;12780;45.502;9.146;2023-04-15T10:55:24;17.40;99.90
24645;DHT22;12780;45.502;9.146;2023-04-15T10:57:57;17.50;99.90
24645;DHT22;12780;45.502;9.146;2023-04-15T11:00:28;17.50;99.90
24645;DHT22;12780;45.502;9.146;2023-04-15T11:02:57;17.70;99.90
24645;DHT22;12780;45.502;9.146;2023-04-15T11:08:14;17.70;99.90
24645;DHT22;12780;45.502;9.146;2023-04-15T11:13:19;17.80;99.90
24645;DHT22;12780;45.502;9.146;2023-04-15T11:15:48;17.90;99.90
24645;DHT22;12780;45.502;9.146;2023-04-15T11:18:21;18.20;99.90
24645;DHT22;12780;45.502;9.146;2023-04-15T11:20:49;18.30;99.90
24645;DHT22;12780;45.502;9.146;2023-04-15T11:23:27;18.50;99.90
24645;DHT22;12780;45.502;9.146;2023-04-15T11:25:54;18.60;99.90
24645;DHT22;12780;45.502;9.146;2023-04-15T11:28:25;18.60;99.90
24645;DHT22;12780;45.502;9.146;2023-04-15T11:30:51;18.70;99.90
24645;DHT22;12780;45.502;9.146;2023-04-15T11:33:16;18.70;99.90
24645;DHT22;12780;45.502;9.146;2023-04-15T11:35:42;18.70;99.90
24645;DHT22;12780;45.502;9.146;2023-04-15T11:38:09;18.90;99.90
24645;DHT22;12780;45.502;9.146;2023-04-15T11:40:39;18.80;99.90
24645;DHT22;12780;45.502;9.146;2023-04-15T11:43:11;18.90;99.90
24645;DHT22;12780;45.502;9.146;2023-04-15T11:45:56;18.90;99.90
24645;DHT22;12780;45.502;9.146;2023-04-15T11:48:26;18.80;99.90
24645;DHT22;12780;45.502;9.146;2023-04-15T11:50:58;18.80;99.90
24645;DHT22;12780;45.502;9.146;2023-04-15T11:53:26;18.80;99.90
24645;DHT22;12780;45.502;9.146;2023-04-15T11:56:00;18.70;99.90
24645;DHT22;12780;45.502;9.146;2023-04-15T11:58:25;18.70;99.90
24645;DHT22;12780;45.502;9.146;2023-04-15T12:00:58;18.60;99.90
24645;DHT22;12780;45.502;9.146;2023-04-15T12:03:26;18.70;99.90
24645;DHT22;12780;45.502;9.146;2023-04-15T12:11:47;18.80;99.90
24645;DHT22;12780;45.502;9.146;2023-04-15T12:14:23;18.90;99.90
24645;DHT22;12780;45.502;9.146;2023-04-15T12:16:59;19.00;99.90
24645;DHT22;12780;45.502;9.146;2023-04-15T12:19:26;18.90;99.90
24645;DHT22;12780;45.502;9.146;2023-04-15T12:21:57;19.00;99.90
24645;DHT22;12780;45.502;9.146;2023-04-15T12:24:23;19.20;99.90
24645;DHT22;12780;45.502;9.146;2023-04-15T12:26:51;19.30;99.90
24645;DHT22;12780;45.502;9.146;2023-04-15T12:29:18;19.30;99.90
24645;DHT22;12780;45.502;9.146;2023-04-15T12:31:57;19.50;99.90
24645;DHT22;12780;45.502;9.146;2023-04-15T12:34:31;19.50;99.90
24645;DHT22;12780;45.502;9.146;2023-04-15T12:36:59;19.60;99.90
24645;DHT22;12780;45.502;9.146;2023-04-15T12:39:25;19.70;99.90
24645;DHT22;12780;45.502;9.146;2023-04-15T12:41:51;19.80;99.90
24645;DHT22;12780;45.502;9.146;2023-04-15T12:44:17;19.90;99.90
24645;DHT22;12780;45.502;9.146;2023-04-15T12:46:43;19.80;99.90
24645;DHT22;12780;45.502;9.146;2023-04-15T12:49:08;20.00;99.90
24645;DHT22;12780;45.502;9.146;2023-04-15T12:51:34;20.10;99.90
24645;DHT22;12780;45.502;9.146;2023-04-15T12:53:59;20.00;99.90
24645;DHT22;12780;45.502;9.146;2023-04-15T12:56:25;20.10;99.90
24645;DHT22;12780;45.502;9.146;2023-04-15T12:58:51;20.00;99.90
24645;DHT22;12780;45.502;9.146;2023-04-15T13:01:17;19.90;99.90
24645;DHT22;12780;45.502;9.146;2023-04-15T13:03:43;20.10;99.90
24645;DHT22;12780;45.502;9.146;2023-04-15T13:06:08;19.70;99.90
24645;DHT22;12780;45.502;9.146;2023-04-15T13:08:34;19.80;99.90
24645;DHT22;12780;45.502;9.146;2023-04-15T13:11:00;19.70;99.90
24645;DHT22;12780;45.502;9.146;2023-04-15T13:13:26;19.70;99.90
24645;DHT22;12780;45.502;9.146;2023-04-15T13:15:51;19.70;99.90
24645;DHT22;12780;45.502;9.146;2023-04-15T13:18:17;19.70;99.90
24645;DHT22;12780;45.502;9.146;2023-04-15T13:20:43;19.60;99.90
24645;DHT22;12780;45.502;9.146;2023-04-15T13:23:08;19.60;99.90
24645;DHT22;12780;45.502;9.146;2023-04-15T13:25:34;19.60;99.90
24645;DHT22;12780;45.502;9.146;2023-04-15T13:28:00;19.60;99.90
24645;DHT22;12780;45.502;9.146;2023-04-15T13:30:26;19.50;99.90
24645;DHT22;12780;45.502;9.146;2023-04-15T13:32:52;19.50;99.90
24645;DHT22;12780;45.502;9.146;2023-04-15T13:35:18;19.50;99.90
24645;DHT22;12780;45.502;9.146;2023-04-15T13:37:45;19.50;99.90
24645;DHT22;12780;45.502;9.146;2023-04-15T13:40:11;19.70;99.90
24645;DHT22;12780;45.502;9.146;2023-04-15T13:42:36;19.80;99.90
24645;DHT22;12780;45.502;9.146;2023-04-15T13:45:02;19.90;99.90
24645;DHT22;12780;45.502;9.146;2023-04-15T13:47:28;20.10;99.90
24645;DHT22;12780;45.502;9.146;2023-04-15T13:49:53;20.40;99.90
24645;DHT22;12780;45.502;9.146;2023-04-15T13:52:21;20.60;99.90
24645;DHT22;12780;45.502;9.146;2023-04-15T13:54:47;20.80;99.30
24645;DHT22;12780;45.502;9.146;2023-04-15T13:57:12;20.80;98.90
24645;DHT22;12780;45.502;9.146;2023-04-15T13:59:38;20.70;99.40
24645;DHT22;12780;45.502;9.146;2023-04-15T14:02:04;20.80;99.70
24645;DHT22;12780;45.502;9.146;2023-04-15T14:04:30;20.70;98.50
24645;DHT22;12780;45.502;9.146;2023-04-15T14:06:56;20.70;98.50
24645;DHT22;12780;45.502;9.146;2023-04-15T14:09:22;20.70;98.50
24645;DHT22;12780;45.502;9.146;2023-04-15T14:11:49;20.70;98.40
24645;DHT22;12780;45.502;9.146;2023-04-15T14:14:14;20.60;97.30
24645;DHT22;12780;45.502;9.146;2023-04-15T14:16:40;20.20;97.40
24645;DHT22;12780;45.502;9.146;2023-04-15T14:19:06;20.20;97.70
24645;DHT22;12780;45.502;9.146;2023-04-15T14:21:32;20.00;97.80
24645;DHT22;12780;45.502;9.146;2023-04-15T14:23:58;19.90;97.70
24645;DHT22;12780;45.502;9.146;2023-04-15T14:26:23;19.70;97.80
24645;DHT22;12780;45.502;9.146;2023-04-15T14:28:49;19.70;98.00
24645;DHT22;12780;45.502;9.146;2023-04-15T14:31:15;19.80;98.10
24645;DHT22;12780;45.502;9.146;2023-04-15T14:33:40;19.80;97.80
24645;DHT22;12780;45.502;9.146;2023-04-15T14:36:09;19.80;97.80
24645;DHT22;12780;45.502;9.146;2023-04-15T14:38:35;19.70;97.90
24645;DHT22;12780;45.502;9.146;2023-04-15T14:41:03;19.70;97.90
24645;DHT22;12780;45.502;9.146;2023-04-15T14:43:29;19.70;97.80
24645;DHT22;12780;45.502;9.146;2023-04-15T14:45:55;19.70;97.80
24645;DHT22;12780;45.502;9.146;2023-04-15T14:48:20;19.70;97.80
24645;DHT22;12780;45.502;9.146;2023-04-15T14:50:46;19.90;98.00
24645;DHT22;12780;45.502;9.146;2023-04-15T14:53:11;19.70;98.10
24645;DHT22;12780;45.502;9.146;2023-04-15T14:55:37;19.70;98.20
24645;DHT22;12780;45.502;9.146;2023-04-15T14:58:03;19.60;98.30
24645;DHT22;12780;45.502;9.146;2023-04-15T15:00:29;19.40;98.40
24645;DHT22;12780;45.502;9.146;2023-04-15T15:02:54;19.50;98.30
24645;DHT22;12780;45.502;9.146;2023-04-15T15:05:20;19.40;98.10
24645;DHT22;12780;45.502;9.146;2023-04-15T15:07:46;19.40;98.00
24645;DHT22;12780;45.502;9.146;2023-04-15T15:10:12;19.20;97.80
24645;DHT22;12780;45.502;9.146;2023-04-15T15:12:37;19.20;97.90
24645;DHT22;12780;45.502;9.146;2023-04-15T15:15:04;19.20;98.00
24645;DHT22;12780;45.502;9.146;2023-04-15T15:17:29;19.10;97.90
24645;DHT22;12780;45.502;9.146;2023-04-15T15:19:55;19.00;98.00
24645;DHT22;12780;45.502;9.146;2023-04-15T15:22:21;19.10;98.30
24645;DHT22;12780;45.502;9.146;2023-04-15T15:24:47;18.90;98.10
24645;DHT22;12780;45.502;9.146;2023-04-15T15:27:12;18.80;98.60
24645;DHT22;12780;45.502;9.146;2023-04-15T15:29:38;18.80;98.60
24645;DHT22;12780;45.502;9.146;2023-04-15T15:32:04;18.90;99.00
24645;DHT22;12780;45.502;9.146;2023-04-15T15:34:29;18.90;98.70
24645;DHT22;12780;45.502;9.146;2023-04-15T15:36:55;18.90;98.90
24645;DHT22;12780;45.502;9.146;2023-04-15T15:39:22;19.00;98.70